TimeMDT,TemperatureF,Dew PointF,Humidity,Sea Level PressureIn,VisibilityMPH,Wind Direction,Wind SpeedMPH,Gust SpeedMPH,PrecipitationIn,Events,Conditions,WindDirDegrees,DateUTC
12:53 AM,36.0,28.9,76,30.13,10.0,SE,4.6,-,N/A,,Clear,140,2012-10-12 06:53:00
1:53 AM,35.6,30.2,81,30.03,10.0,Calm,Calm,-,N/A,,Clear,0,2012-10-12 07:53:00
2:53 AM,36.0,30.9,82,30.04,10.0,Calm,Calm,-,N/A,,Clear,0,2012-10-12 08:53:00
3:53 AM,34.0,30.0,85,30.01,10.0,Calm,Calm,-,N/A,,Clear,0,2012-10-12 09:53:00
4:53 AM,28.0,25.0,88,30.00,10.0,ENE,4.6,-,N/A,,Clear,60,2012-10-12 10:53:00
5:53 AM,27.0,25.0,92,29.98,9.0,NE,4.6,-,N/A,,Clear,40,2012-10-12 11:53:00
6:53 AM,27.0,25.0,92,29.95,9.0,Calm,Calm,-,N/A,,Clear,0,2012-10-12 12:53:00
7:53 AM,27.0,25.0,92,29.93,7.0,East,3.5,-,N/A,,Clear,90,2012-10-12 13:53:00
8:53 AM,35.1,32.0,89,29.90,9.0,ENE,3.5,-,N/A,,Clear,70,2012-10-12 14:53:00
9:53 AM,42.8,33.8,70,29.81,10.0,Calm,Calm,-,N/A,,Clear,0,2012-10-12 15:53:00
10:53 AM,51.8,35.6,54,29.79,10.0,WSW,10.4,-,N/A,,Clear,240,2012-10-12 16:53:00
11:53 AM,55.0,37.0,51,29.80,10.0,SW,9.2,-,N/A,,Clear,220,2012-10-12 17:53:00
12:53 PM,57.0,37.0,47,29.75,10.0,SW,5.8,-,N/A,,Clear,230,2012-10-12 18:53:00
1:53 PM,60.1,37.0,42,29.72,10.0,WSW,6.9,-,N/A,,Clear,240,2012-10-12 19:53:00
2:53 PM,62.1,37.9,41,29.69,6.0,WSW,5.8,-,N/A,,Haze,240,2012-10-12 20:53:00
3:53 PM,64.4,37.4,37,29.65,7.0,Variable,6.9,-,N/A,,Clear,0,2012-10-12 21:53:00
4:53 PM,64.9,37.9,37,29.66,10.0,Calm,Calm,-,N/A,,Clear,0,2012-10-12 22:53:00
5:53 PM,62.1,37.9,41,29.65,10.0,Calm,Calm,-,N/A,,Clear,0,2012-10-12 23:53:00
6:53 PM,52.0,36.0,54,29.66,10.0,Calm,Calm,-,N/A,,Clear,0,2012-10-13 00:53:00
7:53 PM,42.8,33.8,70,29.63,10.0,Calm,Calm,-,N/A,,Clear,0,2012-10-13 01:53:00
8:53 PM,39.0,32.0,76,29.68,10.0,Calm,Calm,-,N/A,,Clear,0,2012-10-13 02:53:00
9:53 PM,37.0,32.0,82,29.67,10.0,Calm,Calm,-,N/A,,Clear,0,2012-10-13 03:53:00
10:53 PM,36.0,32.0,86,29.67,10.0,SW,3.5,-,N/A,,Clear,220,2012-10-13 04:53:00
11:53 PM,35.1,32.0,89,29.68,10.0,West,4.6,-,N/A,,Clear,270,2012-10-13 05:53:00